Time;durP1;ratioP1;P1;durP2;ratioP2;P2;SDS_P1;SDS_P2;PMS_P1;PMS_P2;Temp;Humidity;BMP_temperature;BMP_pressure;BME280_temperature;BME280_humidity;BME280_pressure;Samples;Min_cycle;Max_cycle;Signal;HPM_P1;HPM_P2
2021/06/10 00:00:36;;;;;;;7.35;5.40;;;18.50;74.80;;;;;;5096926;28;20032;-75
2021/06/10 00:03:02;;;;;;;6.22;5.43;;;18.50;74.90;;;;;;5096952;28;20438;-75
2021/06/10 00:05:28;;;;;;;6.15;5.40;;;18.40;75.00;;;;;;5097064;28;20111;-75
2021/06/10 00:07:54;;;;;;;7.40;5.85;;;18.40;75.10;;;;;;5096616;28;20099;-75
2021/06/10 00:10:21;;;;;;;6.47;5.68;;;18.40;75.80;;;;;;5096893;28;20028;-75
2021/06/10 00:12:47;;;;;;;6.32;5.65;;;18.40;75.30;;;;;;5096584;28;20382;-75
2021/06/10 00:15:16;;;;;;;6.57;5.95;;;18.40;75.50;;;;;;5096988;28;20031;-75
2021/06/10 00:17:42;;;;;;;6.93;5.70;;;18.30;75.60;;;;;;5096396;28;20024;-75
2021/06/10 00:20:10;;;;;;;9.15;6.00;;;18.40;75.80;;;;;;5096902;28;20028;-75
2021/06/10 00:22:36;;;;;;;9.13;6.45;;;18.30;76.10;;;;;;5096770;28;20039;-75
2021/06/10 00:25:03;;;;;;;8.90;6.15;;;18.30;76.20;;;;;;5096267;28;20028;-75
2021/06/10 00:27:28;;;;;;;7.45;6.60;;;18.30;76.40;;;;;;5096377;28;20028;-75
2021/06/10 00:29:54;;;;;;;7.65;6.30;;;18.30;76.60;;;;;;5096518;28;20103;-75
2021/06/10 00:32:20;;;;;;;8.13;6.78;;;18.30;76.70;;;;;;5096616;28;20016;-75
2021/06/10 00:34:45;;;;;;;8.48;6.57;;;18.30;76.90;;;;;;5096324;28;20035;-75
2021/06/10 00:37:12;;;;;;;7.40;6.70;;;18.20;77.00;;;;;;5096324;28;20466;-75
2021/06/10 00:39:39;;;;;;;8.88;7.53;;;18.20;77.20;;;;;;5096472;28;20035;-75
2021/06/10 00:42:06;;;;;;;9.88;7.85;;;18.20;77.50;;;;;;5095957;28;20094;-75
2021/06/10 00:44:32;;;;;;;8.60;7.65;;;18.20;77.70;;;;;;5096304;28;20043;-74
2021/06/10 00:46:59;;;;;;;7.50;6.80;;;18.10;77.80;;;;;;5096248;28;20056;-75
2021/06/10 00:49:25;;;;;;;10.88;7.63;;;18.10;78.00;;;;;;5095127;28;20016;-75
2021/06/10 00:51:51;;;;;;;7.78;6.97;;;18.10;78.10;;;;;;5095944;28;20029;-75
2021/06/10 00:54:17;;;;;;;12.05;8.23;;;18.10;78.30;;;;;;5096258;28;20438;-75
2021/06/10 00:56:43;;;;;;;9.93;8.27;;;18.10;78.50;;;;;;5096061;28;20073;-75
2021/06/10 00:59:09;;;;;;;8.52;7.53;;;18.00;78.60;;;;;;5095629;28;20458;-75
2021/06/10 01:01:35;;;;;;;10.93;7.93;;;18.00;78.80;;;;;;5111637;28;20044;-75
2021/06/10 01:04:00;;;;;;;9.07;7.97;;;18.00;79.60;;;;;;5095674;28;20036;-75
2021/06/10 01:06:32;;;;;;;11.15;8.40;;;18.00;79.10;;;;;;5095903;28;20162;-74
2021/06/10 01:09:05;;;;;;;9.75;8.75;;;18.00;79.40;;;;;;5095478;28;20067;-75
2021/06/10 01:11:44;;;;;;;10.95;8.35;;;18.00;79.40;;;;;;5096080;28;20048;-75
2021/06/10 01:14:33;;;;;;;10.25;8.07;;;18.00;79.60;;;;;;5095727;28;20056;-75
2021/06/10 01:17:01;;;;;;;9.80;8.68;;;18.00;79.80;;;;;;5095594;28;20028;-75
2021/06/10 01:19:41;;;;;;;9.88;8.65;;;18.00;79.80;;;;;;5095620;28;20453;-75
2021/06/10 01:22:24;;;;;;;9.70;8.52;;;18.00;80.00;;;;;;5095617;28;20425;-75
2021/06/10 01:25:15;;;;;;;12.25;9.02;;;18.00;80.10;;;;;;5095747;28;20466;-75
2021/06/10 01:28:03;;;;;;;13.73;9.18;;;18.00;80.30;;;;;;5095556;28;20462;-79
2021/06/10 01:30:33;;;;;;;13.18;8.93;;;18.10;80.40;;;;;;5095312;28;20063;-74
2021/06/10 01:33:07;;;;;;;11.68;9.70;;;18.10;80.50;;;;;;5095109;28;20028;-75
2021/06/10 01:35:40;;;;;;;11.98;9.77;;;18.20;80.70;;;;;;5088662;28;20170;-75
2021/06/10 01:38:08;;;;;;;10.45;9.30;;;18.20;80.60;;;;;;5075196;28;20032;-75
2021/06/10 01:40:34;;;;;;;13.35;10.13;;;18.30;80.70;;;;;;5075058;28;20107;-74
2021/06/10 01:43:01;;;;;;;10.50;9.40;;;18.30;80.60;;;;;;5074731;28;20150;-75
2021/06/10 01:45:27;;;;;;;13.00;9.70;;;18.30;80.50;;;;;;5074868;28;20123;-75
2021/06/10 01:47:55;;;;;;;11.60;9.20;;;18.40;80.50;;;;;;5065330;28;20024;-75
2021/06/10 01:50:22;;;;;;;10.38;9.27;;;18.40;80.40;;;;;;5064507;28;20054;-76
2021/06/10 01:52:50;;;;;;;10.88;9.38;;;18.50;80.40;;;;;;5062658;28;20395;-75
2021/06/10 01:55:20;;;;;;;15.60;10.15;;;18.50;80.40;;;;;;5061411;28;20028;-74
2021/06/10 01:57:46;;;;;;;10.35;9.25;;;18.50;80.40;;;;;;5062512;28;20025;-74
2021/06/10 02:00:14;;;;;;;12.32;10.13;;;18.50;80.40;;;;;;5062361;28;20466;-74
2021/06/10 02:02:40;;;;;;;10.95;9.43;;;18.50;80.40;;;;;;5064111;28;20363;-75
2021/06/10 02:05:09;;;;;;;11.35;9.52;;;18.50;80.30;;;;;;5056333;28;20029;-74
2021/06/10 02:07:42;;;;;;;11.68;10.43;;;18.60;80.30;;;;;;5061435;28;20046;-75
2021/06/10 02:10:14;;;;;;;11.10;9.80;;;18.60;80.30;;;;;;5062987;28;20027;-74
2021/06/10 02:12:42;;;;;;;11.40;10.10;;;18.60;80.30;;;;;;5061902;28;20053;-74
2021/06/10 02:15:09;;;;;;;18.23;10.55;;;18.60;80.20;;;;;;5062970;28;20112;-74
2021/06/10 02:17:35;;;;;;;13.27;10.32;;;18.60;80.20;;;;;;5063374;28;20021;-74
2021/06/10 02:20:04;;;;;;;13.07;10.52;;;18.60;80.10;;;;;;5061667;28;20082;-74
2021/06/10 02:22:29;;;;;;;14.95;10.95;;;18.60;80.10;;;;;;5061411;28;20025;-74
2021/06/10 02:24:56;;;;;;;12.10;10.82;;;18.60;80.00;;;;;;5063221;28;20455;-74
2021/06/10 02:27:21;;;;;;;12.27;10.02;;;18.60;80.00;;;;;;5060694;28;20028;-74
2021/06/10 02:29:47;;;;;;;12.10;10.63;;;18.70;80.10;;;;;;5062524;28;20021;-74
2021/06/10 02:32:13;;;;;;;11.82;10.48;;;18.70;80.10;;;;;;5063306;28;20025;-74
2021/06/10 02:34:39;;;;;;;13.35;10.95;;;18.70;80.10;;;;;;5061261;28;20532;-74
2021/06/10 02:37:07;;;;;;;13.07;10.85;;;18.70;80.10;;;;;;5063193;28;20024;-75
2021/06/10 02:39:39;;;;;;;13.95;10.13;;;18.80;80.20;;;;;;5063356;28;20013;-74
2021/06/10 02:42:06;;;;;;;12.35;10.98;;;18.80;80.20;;;;;;5061958;28;20028;-75
2021/06/10 02:44:32;;;;;;;11.60;10.40;;;18.90;80.10;;;;;;5062040;28;20028;-75
2021/06/10 02:47:03;;;;;;;14.85;10.70;;;18.90;80.10;;;;;;5060526;28;20156;-74
2021/06/10 02:49:32;;;;;;;13.52;11.00;;;18.90;80.00;;;;;;5062528;28;20033;-75
2021/06/10 02:51:59;;;;;;;14.27;10.65;;;18.90;79.90;;;;;;5064621;28;20092;-75
2021/06/10 02:54:25;;;;;;;12.75;11.30;;;19.00;79.90;;;;;;5064578;28;20081;-76
2021/06/10 02:56:51;;;;;;;12.32;10.30;;;19.00;79.70;;;;;;5064139;28;20084;-75
2021/06/10 02:59:18;;;;;;;13.80;10.65;;;19.10;79.70;;;;;;5062524;28;20075;-75
2021/06/10 03:01:45;;;;;;;14.15;10.63;;;19.10;79.50;;;;;;5063155;28;20635;-75
2021/06/10 03:04:15;;;;;;;16.45;10.90;;;19.10;79.50;;;;;;5063045;28;20040;-75
2021/06/10 03:06:43;;;;;;;12.48;11.05;;;19.20;79.40;;;;;;5061150;28;20025;-75
2021/06/10 03:09:09;;;;;;;13.77;11.00;;;19.20;79.30;;;;;;5064020;28;20371;-75
2021/06/10 03:11:39;;;;;;;13.38;11.60;;;19.30;79.30;;;;;;5060254;28;20021;-75
2021/06/10 03:14:09;;;;;;;22.23;11.23;;;19.30;79.10;;;;;;5063050;28;20482;-75
2021/06/10 03:16:37;;;;;;;13.48;10.25;;;19.40;79.00;;;;;;5063034;28;20379;-76
2021/06/10 03:19:03;;;;;;;16.73;10.82;;;19.40;78.80;;;;;;5061090;28;20375;-74
2021/06/10 03:21:31;;;;;;;13.45;11.15;;;19.40;78.70;;;;;;5062142;28;20104;-75
2021/06/10 03:23:58;;;;;;;12.40;11.10;;;19.50;79.20;;;;;;5062897;28;20032;-75
2021/06/10 03:26:26;;;;;;;13.75;10.85;;;19.50;79.00;;;;;;5061351;28;20029;-75
2021/06/10 03:28:52;;;;;;;13.35;11.57;;;19.60;78.40;;;;;;5063313;28;20055;-74
2021/06/10 03:31:20;;;;;;;12.75;11.23;;;19.60;78.20;;;;;;5063673;28;20025;-75
2021/06/10 03:33:48;;;;;;;13.95;11.10;;;19.60;78.20;;;;;;5061473;28;20415;-75
2021/06/10 03:36:15;;;;;;;15.43;11.23;;;19.70;78.00;;;;;;5063156;28;20358;-75
2021/06/10 03:38:41;;;;;;;12.70;11.40;;;19.80;77.80;;;;;;5068000;28;20414;-74
2021/06/10 03:41:09;;;;;;;12.75;11.23;;;19.80;77.60;;;;;;5061142;28;20048;-74
2021/06/10 03:43:36;;;;;;;13.80;11.38;;;19.80;77.50;;;;;;5061601;28;20043;-75
2021/06/10 03:46:08;;;;;;;13.25;10.82;;;19.90;77.50;;;;;;5061143;28;20049;-74
2021/06/10 03:48:37;;;;;;;12.10;10.85;;;19.90;77.40;;;;;;5061312;28;20107;-74
2021/06/10 03:51:09;;;;;;;12.95;11.38;;;20.00;77.10;;;;;;5061224;28;20021;-75
2021/06/10 03:53:35;;;;;;;12.68;11.15;;;20.00;76.90;;;;;;5061609;28;20481;-75
2021/06/10 03:56:01;;;;;;;14.60;10.77;;;20.10;76.80;;;;;;5062687;28;20020;-75
2021/06/10 03:58:26;;;;;;;14.65;11.15;;;20.10;76.60;;;;;;5061753;28;20018;-75
2021/06/10 04:00:52;;;;;;;13.45;11.90;;;20.10;76.50;;;;;;5070485;28;20412;-74
2021/06/10 04:03:18;;;;;;;14.13;10.65;;;20.20;76.30;;;;;;5081283;28;20044;-74
2021/06/10 04:05:43;;;;;;;13.60;11.25;;;20.20;76.30;;;;;;5084910;28;20025;-73
2021/06/10 04:08:09;;;;;;;13.43;12.00;;;20.20;76.10;;;;;;5087608;28;20048;-73
2021/06/10 04:10:35;;;;;;;15.35;11.88;;;20.30;76.10;;;;;;5086744;28;20048;-75
2021/06/10 04:13:01;;;;;;;14.05;11.73;;;20.30;75.80;;;;;;5089188;28;20029;-74
2021/06/10 04:15:26;;;;;;;15.45;11.73;;;20.30;75.80;;;;;;5090592;28;20036;-73
2021/06/10 04:17:52;;;;;;;15.68;11.25;;;20.40;75.80;;;;;;5090328;28;20025;-75
2021/06/10 04:20:18;;;;;;;14.65;11.52;;;20.40;75.60;;;;;;5089633;28;20486;-75
2021/06/10 04:22:44;;;;;;;12.85;11.52;;;20.50;75.40;;;;;;5100150;28;20031;-75
2021/06/10 04:25:10;;;;;;;14.10;11.40;;;20.50;75.20;;;;;;5111658;28;20040;-75
2021/06/10 04:27:36;;;;;;;14.40;11.77;;;20.60;75.20;;;;;;5113144;28;20052;-74
2021/06/10 04:30:05;;;;;;;13.07;11.68;;;20.60;75.00;;;;;;5113134;28;20027;-74
2021/06/10 04:32:30;;;;;;;12.50;11.20;;;20.60;74.90;;;;;;5101018;28;20059;-75
2021/06/10 04:34:56;;;;;;;14.30;12.07;;;20.60;74.80;;;;;;5096673;28;20024;-75
2021/06/10 04:37:23;;;;;;;13.07;11.70;;;20.70;74.70;;;;;;5097079;28;20021;-74
2021/06/10 04:39:48;;;;;;;14.68;11.38;;;20.70;74.70;;;;;;5090350;28;20029;-74
2021/06/10 04:42:14;;;;;;;14.48;12.02;;;20.70;74.80;;;;;;5075179;28;20043;-75
2021/06/10 04:44:40;;;;;;;13.77;11.38;;;20.90;74.70;;;;;;5075716;28;20040;-75
2021/06/10 04:47:06;;;;;;;12.68;11.38;;;21.00;74.40;;;;;;5076540;28;20059;-75
2021/06/10 04:49:36;;;;;;;13.18;11.77;;;21.10;74.00;;;;;;5076264;28;20028;-75
2021/06/10 04:52:03;;;;;;;13.38;11.98;;;21.20;73.70;;;;;;5076060;28;20107;-75
2021/06/10 04:54:29;;;;;;;13.55;11.73;;;21.30;73.30;;;;;;5075746;28;20035;-75
2021/06/10 04:56:54;;;;;;;13.40;11.23;;;21.30;73.10;;;;;;5075564;28;20020;-74
2021/06/10 04:59:20;;;;;;;13.60;11.43;;;21.40;73.00;;;;;;5075735;28;20153;-74
2021/06/10 05:01:46;;;;;;;13.30;11.85;;;21.50;72.70;;;;;;5075799;28;20029;-76
2021/06/10 05:04:11;;;;;;;15.40;11.70;;;21.60;72.40;;;;;;5075756;28;20504;-73
2021/06/10 05:06:37;;;;;;;14.27;11.50;;;21.70;72.40;;;;;;5076138;28;20023;-74
2021/06/10 05:09:04;;;;;;;12.25;10.95;;;21.80;72.10;;;;;;5079642;28;20385;-74
2021/06/10 05:11:30;;;;;;;14.98;11.32;;;21.90;71.70;;;;;;5080749;28;20025;-74
2021/06/10 05:13:55;;;;;;;15.32;11.77;;;22.00;71.40;;;;;;5065369;28;20025;-74
2021/06/10 05:16:21;;;;;;;13.57;11.25;;;22.10;71.30;;;;;;5064565;28;20116;-75
2021/06/10 05:18:47;;;;;;;12.48;11.18;;;22.30;70.90;;;;;;5065713;28;20021;-74
2021/06/10 05:21:12;;;;;;;15.15;11.02;;;22.30;70.50;;;;;;5072233;28;20486;-74
2021/06/10 05:23:38;;;;;;;12.57;11.27;;;22.40;70.20;;;;;;5074739;28;20115;-75
2021/06/10 05:26:05;;;;;;;12.60;11.30;;;22.60;69.90;;;;;;5071356;28;20359;-74
2021/06/10 05:28:34;;;;;;;15.20;11.98;;;22.60;69.40;;;;;;5059782;28;20197;-74
2021/06/10 05:31:01;;;;;;;13.32;11.85;;;22.70;69.20;;;;;;5054922;28;20028;-74
2021/06/10 05:33:27;;;;;;;19.27;11.85;;;22.80;69.00;;;;;;5053479;28;20390;-76
2021/06/10 05:35:52;;;;;;;18.45;13.38;;;22.90;68.70;;;;;;5054744;28;20108;-74
2021/06/10 05:38:18;;;;;;;14.00;11.60;;;22.90;68.50;;;;;;5054749;28;20107;-75
2021/06/10 05:40:44;;;;;;;13.85;12.35;;;22.90;68.50;;;;;;5055223;28;20033;-75
2021/06/10 05:43:09;;;;;;;12.73;11.43;;;23.00;68.30;;;;;;5054494;28;20108;-75
2021/06/10 05:45:35;;;;;;;16.50;11.77;;;23.10;68.10;;;;;;5054565;28;20045;-75
2021/06/10 05:48:01;;;;;;;21.02;13.05;;;23.20;67.90;;;;;;5054637;28;20029;-75
2021/06/10 05:50:27;;;;;;;14.55;11.98;;;23.30;67.70;;;;;;5058993;28;20052;-75
2021/06/10 05:52:53;;;;;;;14.05;12.20;;;23.30;67.40;;;;;;5054059;28;20056;-75
2021/06/10 05:55:18;;;;;;;14.73;12.43;;;23.20;67.20;;;;;;5055068;28;20043;-75
2021/06/10 05:57:44;;;;;;;16.40;11.98;;;23.10;67.20;;;;;;5054345;28;20053;-75
2021/06/10 06:00:10;;;;;;;13.32;11.82;;;23.10;67.50;;;;;;5054166;28;20033;-75
2021/06/10 06:02:36;;;;;;;13.90;12.50;;;23.10;67.50;;;;;;5054223;28;20085;-74
2021/06/10 06:05:02;;;;;;;14.13;11.88;;;23.20;67.60;;;;;;5053127;28;20087;-75
2021/06/10 06:07:28;;;;;;;14.27;12.00;;;23.20;67.50;;;;;;5054689;28;20029;-75
2021/06/10 06:09:54;;;;;;;13.98;11.65;;;23.40;67.40;;;;;;5054060;28;20163;-74
2021/06/10 06:12:22;;;;;;;17.92;11.43;;;23.50;67.20;;;;;;5053876;28;20029;-75
2021/06/10 06:14:47;;;;;;;17.52;13.48;;;23.60;67.00;;;;;;5054228;28;20158;-75
2021/06/10 06:17:14;;;;;;;14.40;12.38;;;23.70;66.90;;;;;;5054296;28;20478;-75
2021/06/10 06:19:40;;;;;;;16.08;12.32;;;23.80;66.60;;;;;;5054310;28;20106;-76
2021/06/10 06:22:09;;;;;;;13.70;12.35;;;23.80;66.40;;;;;;5054709;28;20056;-75
2021/06/10 06:24:35;;;;;;;16.55;11.98;;;23.90;66.40;;;;;;5053777;28;20120;-74
2021/06/10 06:27:01;;;;;;;15.05;13.05;;;24.00;66.30;;;;;;5053776;28;20124;-75
2021/06/10 06:29:27;;;;;;;13.43;12.02;;;24.10;66.10;;;;;;5053917;28;20025;-73
2021/06/10 06:31:53;;;;;;;16.00;12.50;;;24.10;65.60;;;;;;5052402;28;20021;-78
2021/06/10 06:34:19;;;;;;;14.43;12.38;;;24.20;65.30;;;;;;5053969;28;20029;-75
2021/06/10 06:36:44;;;;;;;14.52;12.02;;;24.30;65.80;;;;;;5053693;28;20410;-75
2021/06/10 06:39:10;;;;;;;14.13;12.63;;;24.30;64.90;;;;;;5053587;28;20025;-75
2021/06/10 06:41:36;;;;;;;13.18;11.77;;;24.40;64.80;;;;;;5053549;28;20029;-75
2021/06/10 06:44:03;;;;;;;15.77;12.63;;;24.50;64.80;;;;;;5053307;28;20036;-75
2021/06/10 06:46:29;;;;;;;15.65;12.85;;;24.50;64.50;;;;;;5053201;28;20080;-75
2021/06/10 06:48:55;;;;;;;14.52;12.63;;;24.60;64.30;;;;;;5052928;28;20083;-76
2021/06/10 06:51:21;;;;;;;13.20;11.85;;;24.80;64.20;;;;;;5053583;28;20029;-75
2021/06/10 06:53:47;;;;;;;14.35;12.60;;;24.80;64.00;;;;;;5053306;28;20033;-75
2021/06/10 06:56:12;;;;;;;17.40;13.57;;;24.90;63.80;;;;;;5052074;28;20179;-74
2021/06/10 06:58:38;;;;;;;15.20;11.88;;;24.90;63.60;;;;;;5053194;28;20017;-75
2021/06/10 07:01:04;;;;;;;14.30;12.68;;;24.90;63.50;;;;;;5053231;28;20410;-75
2021/06/10 07:03:30;;;;;;;15.05;12.27;;;25.00;63.40;;;;;;5053338;28;20025;-75
2021/06/10 07:05:56;;;;;;;14.32;11.80;;;25.10;63.20;;;;;;5053400;28;20125;-76
2021/06/10 07:08:21;;;;;;;16.02;11.63;;;25.30;63.00;;;;;;5061192;28;20025;-75
2021/06/10 07:10:54;;;;;;;13.32;12.02;;;25.40;62.60;;;;;;5062144;28;20017;-75
2021/06/10 07:13:24;;;;;;;15.10;11.15;;;25.50;62.20;;;;;;5063452;28;20024;-75
2021/06/10 07:15:51;;;;;;;14.18;10.85;;;25.70;62.00;;;;;;5062364;28;20021;-75
2021/06/10 07:18:17;;;;;;;12.52;11.32;;;25.90;62.00;;;;;;5060814;28;20028;-76
2021/06/10 07:20:43;;;;;;;12.88;11.57;;;26.10;61.50;;;;;;5062453;28;20035;-75
2021/06/10 07:23:09;;;;;;;13.93;10.77;;;26.20;60.90;;;;;;5063326;28;20021;-75
2021/06/10 07:25:36;;;;;;;13.25;10.63;;;26.30;60.60;;;;;;5065488;28;20065;-76
2021/06/10 07:28:02;;;;;;;11.18;10.02;;;26.30;60.40;;;;;;5061023;28;20031;-75
2021/06/10 07:30:28;;;;;;;10.60;9.50;;;26.30;60.40;;;;;;5063594;28;20037;-75
2021/06/10 07:32:54;;;;;;;11.25;10.02;;;26.40;60.00;;;;;;5061134;28;20037;-76
2021/06/10 07:35:21;;;;;;;12.10;10.85;;;26.50;60.00;;;;;;5060903;28;20494;-75
2021/06/10 07:37:51;;;;;;;14.32;11.15;;;26.50;60.10;;;;;;5061969;28;20463;-76
2021/06/10 07:40:19;;;;;;;12.02;10.70;;;26.60;60.00;;;;;;5062614;28;20040;-76
2021/06/10 07:42:45;;;;;;;12.60;9.32;;;26.60;59.70;;;;;;5062930;28;20032;-75
2021/06/10 07:45:11;;;;;;;12.48;9.88;;;26.60;59.30;;;;;;5061623;28;20040;-75
2021/06/10 07:47:37;;;;;;;12.10;9.80;;;26.60;59.30;;;;;;5060886;28;20068;-76
2021/06/10 07:50:04;;;;;;;10.63;9.38;;;26.60;59.40;;;;;;5061401;28;20052;-75
2021/06/10 07:52:30;;;;;;;9.70;8.68;;;26.70;59.30;;;;;;5060322;28;20360;-74
2021/06/10 07:54:55;;;;;;;9.80;7.93;;;26.70;58.90;;;;;;5062377;28;20032;-78
2021/06/10 07:57:21;;;;;;;10.38;9.27;;;26.70;58.60;;;;;;5061349;28;20025;-75
2021/06/10 07:59:47;;;;;;;10.13;9.18;;;26.70;58.60;;;;;;5064368;28;20458;-75
2021/06/10 08:02:13;;;;;;;11.20;9.30;;;26.60;58.70;;;;;;5063665;28;20035;-75
2021/06/10 08:04:38;;;;;;;8.75;7.95;;;26.60;58.90;;;;;;5064947;28;20106;-74
2021/06/10 08:07:04;;;;;;;8.77;7.88;;;26.60;58.60;;;;;;5063608;28;20043;-75
2021/06/10 08:09:33;;;;;;;8.18;7.47;;;26.70;58.30;;;;;;5065477;28;20021;-75
2021/06/10 08:12:00;;;;;;;10.73;8.52;;;26.80;58.10;;;;;;5064285;28;20447;-75
2021/06/10 08:14:26;;;;;;;8.88;8.07;;;26.90;58.30;;;;;;5065644;28;20429;-76
2021/06/10 08:16:52;;;;;;;6.72;6.13;;;26.90;58.20;;;;;;5065676;28;20025;-75
2021/06/10 08:19:17;;;;;;;6.32;5.75;;;27.00;57.50;;;;;;5066753;28;20078;-76
2021/06/10 08:21:43;;;;;;;7.50;6.50;;;27.10;57.10;;;;;;5064347;28;20020;-76
2021/06/10 08:24:11;;;;;;;8.95;6.32;;;27.20;56.80;;;;;;5065135;28;20033;-75
2021/06/10 08:26:37;;;;;;;6.38;5.88;;;27.30;57.20;;;;;;5066040;28;20033;-76
2021/06/10 08:29:03;;;;;;;7.63;6.93;;;27.40;56.70;;;;;;5063759;28;20028;-75
2021/06/10 08:31:29;;;;;;;6.07;5.57;;;27.50;56.00;;;;;;5064805;28;20099;-75
2021/06/10 08:33:54;;;;;;;6.88;6.28;;;27.60;55.50;;;;;;5065551;28;20033;-76
2021/06/10 08:36:21;;;;;;;7.50;5.28;;;27.60;55.30;;;;;;5065279;28;20025;-75
2021/06/10 08:38:47;;;;;;;6.22;5.50;;;27.70;54.80;;;;;;5064627;28;20410;-75
2021/06/10 08:41:14;;;;;;;6.30;5.70;;;27.80;54.30;;;;;;5064044;28;20525;-77
2021/06/10 08:43:41;;;;;;;6.15;5.60;;;27.90;54.40;;;;;;5065661;28;20036;-75
2021/06/10 08:46:09;;;;;;;6.60;5.85;;;28.10;54.10;;;;;;5063488;28;20054;-75
2021/06/10 08:48:43;;;;;;;7.68;5.78;;;28.30;53.90;;;;;;5070631;28;20028;-75
2021/06/10 08:51:10;;;;;;;;;;;28.60;53.70;;;;;;5072139;28;20400;-75
2021/06/10 08:53:36;;;;;;;6.15;5.55;;;28.70;53.80;;;;;;5075712;28;19962;-75
2021/06/10 08:56:03;;;;;;;6.28;5.68;;;29.00;53.10;;;;;;5065710;28;20021;-76
2021/06/10 08:58:30;;;;;;;5.03;4.63;;;29.10;52.30;;;;;;5063494;28;20033;-74
2021/06/10 09:00:58;;;;;;;8.50;5.75;;;29.40;52.00;;;;;;5075092;28;20028;-77
2021/06/10 09:03:31;;;;;;;5.28;4.88;;;29.60;51.50;;;;;;5074436;28;20090;-75
2021/06/10 09:06:07;;;;;;;7.50;4.40;;;29.90;51.00;;;;;;5075457;28;20060;-75
2021/06/10 09:08:34;;;;;;;4.85;4.45;;;30.20;50.40;;;;;;5074452;28;20032;-75
2021/06/10 09:11:06;;;;;;;6.97;5.03;;;30.40;49.80;;;;;;5074854;28;20029;-75
2021/06/10 09:13:40;;;;;;;5.43;4.93;;;30.80;49.40;;;;;;5075705;28;20029;-76
2021/06/10 09:16:22;;;;;;;6.45;5.03;;;31.20;48.90;;;;;;5069863;28;20031;-75
2021/06/10 09:19:01;;;;;;;5.25;4.65;;;31.50;48.60;;;;;;5075290;28;20366;-75
2021/06/10 09:21:28;;;;;;;6.20;4.57;;;31.80;48.10;;;;;;5075213;28;20025;-75
2021/06/10 09:23:55;;;;;;;4.88;4.30;;;32.10;47.50;;;;;;5074242;28;20656;-75
2021/06/10 09:26:21;;;;;;;4.57;4.18;;;32.40;46.80;;;;;;5074977;28;20028;-75
2021/06/10 09:28:51;;;;;;;4.88;4.40;;;32.70;46.30;;;;;;5073181;28;20032;-75
2021/06/10 09:31:33;;;;;;;4.72;4.20;;;33.00;45.70;;;;;;5074039;28;20032;-75
2021/06/10 09:34:05;;;;;;;6.20;4.68;;;33.40;45.00;;;;;;5073940;28;20067;-76
2021/06/10 09:36:38;;;;;;;5.70;4.30;;;33.90;44.60;;;;;;5074328;28;20026;-75
2021/06/10 09:39:08;;;;;;;;;;;34.40;44.40;;;;;;5074690;28;20056;-76
2021/06/10 09:41:54;;;;;;;8.20;4.22;;;34.90;45.10;;;;;;5074744;28;20350;-75
2021/06/10 09:44:39;;;;;;;4.13;3.45;;;35.50;43.90;;;;;;5074413;28;20043;-74
2021/06/10 09:47:06;;;;;;;3.85;3.50;;;36.30;42.70;;;;;;5074947;28;20049;-75
2021/06/10 09:49:31;;;;;;;4.43;3.92;;;36.80;42.10;;;;;;5073528;28;20024;-75
2021/06/10 09:51:58;;;;;;;3.90;3.60;;;37.20;41.50;;;;;;5074826;28;20025;-75
2021/06/10 09:54:43;;;;;;;5.50;3.65;;;37.70;40.70;;;;;;5074451;28;20426;-75
2021/06/10 09:57:09;;;;;;;3.65;3.20;;;38.10;39.70;;;;;;5074467;28;20108;-74
2021/06/10 10:00:01;;;;;;;4.57;3.63;;;37.80;38.70;;;;;;5074480;28;20044;-75
2021/06/10 10:02:29;;;;;;;3.95;3.65;;;37.00;38.60;;;;;;5072283;28;20036;-75
2021/06/10 10:04:58;;;;;;;6.07;5.45;;;36.20;39.30;;;;;;5074666;28;20439;-75
2021/06/10 10:07:26;;;;;;;7.53;5.03;;;35.40;40.70;;;;;;5073247;28;20032;-75
2021/06/10 10:09:54;;;;;;;5.65;5.15;;;34.70;41.80;;;;;;5074225;28;20122;-76
2021/06/10 10:12:21;;;;;;;5.80;5.20;;;34.10;42.60;;;;;;5074537;28;20111;-75
2021/06/10 10:14:47;;;;;;;6.38;5.53;;;33.80;43.30;;;;;;5074363;28;20035;-75
2021/06/10 10:17:13;;;;;;;6.10;5.50;;;33.60;43.60;;;;;;5074074;28;20044;-73
2021/06/10 10:19:39;;;;;;;7.25;5.60;;;33.40;44.00;;;;;;5074114;28;20052;-75
2021/06/10 10:22:10;;;;;;;5.80;5.35;;;32.90;44.10;;;;;;5073818;28;20033;-77
2021/06/10 10:24:37;;;;;;;5.65;5.00;;;32.60;44.70;;;;;;5073983;28;20351;-77
2021/06/10 10:27:04;;;;;;;6.22;5.30;;;32.40;45.00;;;;;;5074643;28;20016;-76
2021/06/10 10:29:30;;;;;;;6.97;6.07;;;32.20;45.30;;;;;;5074266;28;20111;-75
2021/06/10 10:31:57;;;;;;;6.30;5.80;;;32.00;45.50;;;;;;5073363;28;20433;-75
2021/06/10 10:34:33;;;;;;;8.30;6.07;;;31.80;46.00;;;;;;5073831;28;20040;-75
2021/06/10 10:36:59;;;;;;;8.27;6.35;;;31.60;46.20;;;;;;5072959;28;20028;-75
2021/06/10 10:39:30;;;;;;;6.28;5.68;;;31.70;46.10;;;;;;5073441;28;20378;-76
2021/06/10 10:41:58;;;;;;;6.30;5.80;;;31.70;46.00;;;;;;5073850;28;20092;-76
2021/06/10 10:44:31;;;;;;;6.30;5.80;;;31.70;46.00;;;;;;5060140;28;20402;-76
2021/06/10 10:47:02;;;;;;;6.13;5.60;;;31.60;45.80;;;;;;5054062;28;20151;-76
2021/06/10 10:49:38;;;;;;;5.57;5.05;;;31.60;45.60;;;;;;5053808;28;20033;-76
2021/06/10 10:52:36;;;;;;;6.00;4.65;;;31.50;45.80;;;;;;5053470;28;20021;-77
2021/06/10 10:55:26;;;;;;;6.03;5.10;;;31.40;45.30;;;;;;5052168;28;20072;-76
2021/06/10 10:58:03;;;;;;;6.10;5.50;;;31.50;45.50;;;;;;5053452;28;20033;-75
2021/06/10 11:00:55;;;;;;;5.90;5.40;;;31.40;45.50;;;;;;5052411;28;20123;-75
2021/06/10 11:03:27;;;;;;;6.20;5.63;;;31.30;45.80;;;;;;5075384;28;20090;-75
2021/06/10 11:05:53;;;;;;;7.15;5.43;;;31.40;46.30;;;;;;5093428;28;20020;-76
2021/06/10 11:08:22;;;;;;;6.85;4.38;;;31.60;46.10;;;;;;5093650;28;20028;-76
2021/06/10 11:10:54;;;;;;;5.15;4.65;;;31.60;45.20;;;;;;5093756;28;20032;-76
2021/06/10 11:13:22;;;;;;;6.20;5.15;;;31.60;45.30;;;;;;5091628;28;20024;-76
2021/06/10 11:15:48;;;;;;;5.13;4.30;;;31.60;45.40;;;;;;5084868;28;20356;-75
2021/06/10 11:18:40;;;;;;;4.40;4.00;;;31.60;45.10;;;;;;5092130;28;20031;-76
2021/06/10 11:21:07;;;;;;;5.05;4.35;;;31.50;44.60;;;;;;5093287;28;20028;-76
2021/06/10 11:23:33;;;;;;;18.23;5.05;;;31.50;44.80;;;;;;5067770;28;20474;-75
2021/06/10 11:26:03;;;;;;;4.43;4.00;;;31.30;44.70;;;;;;5053317;28;20021;-75
2021/06/10 11:28:35;;;;;;;4.20;3.70;;;31.10;44.50;;;;;;5052628;28;20051;-74
2021/06/10 11:31:20;;;;;;;7.07;4.00;;;30.90;44.80;;;;;;5052678;28;20036;-75
2021/06/10 11:33:48;;;;;;;5.00;4.20;;;30.60;45.00;;;;;;5056426;28;20056;-74
2021/06/10 11:36:15;;;;;;;4.88;4.47;;;30.50;45.60;;;;;;5056500;28;20422;-74
2021/06/10 11:38:47;;;;;;;5.25;4.85;;;30.30;46.20;;;;;;5057004;28;20036;-74
2021/06/10 11:41:17;;;;;;;5.40;4.13;;;30.20;46.50;;;;;;5057231;28;20367;-74
2021/06/10 11:43:46;;;;;;;5.40;4.90;;;30.00;46.80;;;;;;5056452;28;20090;-74
2021/06/10 11:46:17;;;;;;;8.75;5.97;;;29.70;47.20;;;;;;5057128;28;20045;-75
2021/06/10 11:48:46;;;;;;;5.90;5.13;;;29.50;48.30;;;;;;5057189;28;20033;-75
2021/06/10 11:51:20;;;;;;;8.10;6.07;;;29.20;49.00;;;;;;5056312;28;20087;-75
2021/06/10 11:53:47;;;;;;;6.57;5.97;;;28.90;49.60;;;;;;5058914;28;20032;-74
2021/06/10 11:56:13;;;;;;;6.60;6.00;;;28.50;50.20;;;;;;5069573;28;20029;-76
2021/06/10 11:58:39;;;;;;;6.28;5.68;;;28.20;50.90;;;;;;5076598;28;20025;-75
2021/06/10 12:01:13;;;;;;;9.68;6.25;;;27.80;51.50;;;;;;5074874;28;20035;-75
2021/06/10 12:03:40;;;;;;;6.45;5.80;;;27.50;52.20;;;;;;5076561;28;20020;-75
2021/06/10 12:06:10;;;;;;;7.03;6.00;;;27.30;52.80;;;;;;5076910;28;20457;-74
2021/06/10 12:08:37;;;;;;;6.78;5.60;;;27.10;53.40;;;;;;5076750;28;20048;-77
2021/06/10 12:11:10;;;;;;;7.03;6.25;;;27.10;53.30;;;;;;5074817;28;20028;-75
2021/06/10 12:13:41;;;;;;;6.78;5.70;;;27.00;53.40;;;;;;5076040;28;20533;-75
2021/06/10 12:16:09;;;;;;;6.82;5.55;;;26.90;53.60;;;;;;5075951;28;20115;-75
2021/06/10 12:18:37;;;;;;;6.30;5.75;;;26.80;53.90;;;;;;5076153;28;20026;-74
2021/06/10 12:21:08;;;;;;;6.07;5.50;;;26.70;54.40;;;;;;5075972;28;20024;-75
2021/06/10 12:23:37;;;;;;;8.85;6.07;;;26.80;54.60;;;;;;5065970;28;20033;-75
2021/06/10 12:26:16;;;;;;;6.90;5.80;;;26.90;54.50;;;;;;5056467;28;20035;-75
2021/06/10 12:28:52;;;;;;;6.80;6.10;;;26.90;54.60;;;;;;5056571;28;20028;-76
2021/06/10 12:31:28;;;;;;;8.18;6.25;;;27.00;54.70;;;;;;5056344;28;20025;-76
2021/06/10 12:33:59;;;;;;;5.97;5.38;;;27.10;54.50;;;;;;5056272;28;20033;-76
2021/06/10 12:39:46;;;;;;;6.93;6.30;;;27.40;54.60;;;;;;5076090;28;20019;-76
2021/06/10 12:42:12;;;;;;;10.70;4.25;;;27.80;54.00;;;;;;5083077;28;20107;-76
2021/06/10 12:44:38;;;;;;;6.60;3.92;;;28.00;52.70;;;;;;5075658;28;20090;-75
2021/06/10 12:47:06;;;;;;;6.57;3.35;;;27.90;51.90;;;;;;5075875;28;20052;-75